Time;durP1;ratioP1;P1;durP2;ratioP2;P2;SDS_P1;SDS_P2;PMS_P1;PMS_P2;Temp;Humidity;BMP_temperature;BMP_pressure;BME280_temperature;BME280_humidity;BME280_pressure;Samples;Min_cycle;Max_cycle;Signal;HPM_P1;HPM_P2
2021/01/16 00:00:25;;;;;;;73.75;14.00;;;0.50;1.00;;;;;;5037709;28;20206;-70
2021/01/16 00:02:52;;;;;;;68.70;12.85;;;0.50;1.00;;;;;;5037647;28;20226;-70
2021/01/16 00:05:19;;;;;;;71.00;14.70;;;0.50;1.00;;;;;;5037433;28;20704;-70
2021/01/16 00:07:46;;;;;;;72.30;12.93;;;0.50;1.00;;;;;;5036252;28;20202;-70
2021/01/16 00:10:15;;;;;;;69.32;12.98;;;0.50;1.00;;;;;;5036612;28;20210;-70
2021/01/16 00:12:42;;;;;;;71.13;12.98;;;0.50;1.00;;;;;;5036329;28;20222;-70
2021/01/16 00:15:11;;;;;;;73.80;14.98;;;0.50;1.00;;;;;;5036255;28;20293;-70
2021/01/16 00:17:37;;;;;;;70.15;13.52;;;0.50;1.00;;;;;;5036949;28;20284;-70
2021/01/16 00:20:05;;;;;;;73.05;13.85;;;0.50;1.00;;;;;;5036175;28;20297;-70
2021/01/16 00:22:31;;;;;;;71.53;14.75;;;0.50;1.00;;;;;;5036222;28;20314;-70
2021/01/16 00:24:58;;;;;;;73.57;14.68;;;0.50;1.00;;;;;;5036140;28;20290;-70
2021/01/16 00:27:26;;;;;;;70.65;13.00;;;0.50;1.00;;;;;;5036274;28;20206;-70
2021/01/16 00:29:53;;;;;;;72.15;13.10;;;0.50;1.00;;;;;;5036535;28;20213;-70
2021/01/16 00:32:20;;;;;;;70.57;14.00;;;0.50;1.00;;;;;;5034586;28;20234;-70
2021/01/16 00:34:47;;;;;;;71.93;13.52;;;0.50;1.00;;;;;;5034014;28;20252;-69
2021/01/16 00:37:13;;;;;;;72.38;14.32;;;0.50;1.00;;;;;;5033773;28;20710;-70
2021/01/16 00:39:40;;;;;;;70.20;12.75;;;0.50;1.00;;;;;;5034138;28;20210;-70
2021/01/16 00:42:06;;;;;;;73.47;14.27;;;0.50;1.00;;;;;;5033976;28;20250;-69
2021/01/16 00:44:32;;;;;;;72.63;14.13;;;0.50;1.00;;;;;;5033297;28;20209;-70
2021/01/16 00:46:59;;;;;;;74.38;14.55;;;0.50;1.00;;;;;;5035913;28;20301;-70
2021/01/16 00:49:26;;;;;;;70.00;14.23;;;0.50;1.00;;;;;;5036271;28;20485;-70
2021/01/16 00:51:52;;;;;;;73.22;13.93;;;0.50;1.00;;;;;;5034956;28;20261;-70
2021/01/16 00:54:18;;;;;;;73.03;14.77;;;0.50;1.00;;;;;;5036647;28;20218;-70
2021/01/16 00:56:45;;;;;;;73.15;13.38;;;0.50;1.00;;;;;;5036097;28;20233;-70
2021/01/16 00:59:11;;;;;;;73.85;14.90;;;0.50;1.00;;;;;;5036526;28;20206;-70
2021/01/16 01:01:39;;;;;;;75.28;15.75;;;0.50;1.00;;;;;;5036572;28;20231;-70
2021/01/16 01:04:08;;;;;;;74.00;15.30;;;0.50;1.00;;;;;;5035164;28;20210;-70
2021/01/16 01:06:35;;;;;;;71.30;13.75;;;0.50;1.00;;;;;;5036118;28;20198;-70
2021/01/16 01:09:02;;;;;;;70.78;13.13;;;0.50;1.00;;;;;;5035469;28;20300;-70
2021/01/16 01:11:28;;;;;;;71.03;13.30;;;0.50;1.00;;;;;;5035440;28;20313;-70
2021/01/16 01:13:54;;;;;;;71.38;14.63;;;0.50;1.00;;;;;;5034163;28;20234;-70
2021/01/16 01:16:21;;;;;;;75.85;14.70;;;0.50;1.00;;;;;;5033459;28;20222;-70
2021/01/16 01:18:48;;;;;;;76.65;15.30;;;0.50;1.00;;;;;;5033370;28;20206;-70
2021/01/16 01:21:15;;;;;;;72.20;14.40;;;0.50;1.00;;;;;;5033329;28;20722;-70
2021/01/16 01:23:42;;;;;;;74.35;16.27;;;0.50;1.00;;;;;;5033426;28;20202;-70
2021/01/16 01:26:09;;;;;;;74.45;14.00;;;0.50;1.00;;;;;;5032909;28;20261;-70
2021/01/16 01:28:35;;;;;;;74.00;14.00;;;0.50;1.00;;;;;;5033420;28;20206;-70
2021/01/16 01:31:01;;;;;;;72.30;13.93;;;0.50;1.00;;;;;;5033028;28;20322;-70
2021/01/16 01:33:27;;;;;;;72.18;14.40;;;0.50;1.00;;;;;;5033351;28;20210;-70
2021/01/16 01:35:54;;;;;;;72.05;13.23;;;0.40;1.00;;;;;;5032502;28;20234;-70
2021/01/16 01:38:20;;;;;;;74.50;14.00;;;0.50;1.00;;;;;;5033107;28;20669;-70
2021/01/16 01:40:47;;;;;;;73.95;14.48;;;0.40;1.00;;;;;;5032843;28;20213;-69
2021/01/16 01:43:14;;;;;;;72.53;14.82;;;0.40;1.00;;;;;;5033302;28;20210;-69
2021/01/16 01:45:41;;;;;;;73.28;15.30;;;0.40;1.00;;;;;;5032472;28;20210;-69
2021/01/16 01:48:08;;;;;;;74.63;14.75;;;0.40;1.00;;;;;;5032619;28;20214;-69
2021/01/16 01:50:35;;;;;;;72.15;14.25;;;0.40;1.00;;;;;;5033011;28;20205;-69
2021/01/16 01:53:04;;;;;;;70.15;14.38;;;0.40;1.00;;;;;;5056180;22;20241;-74
2021/01/16 01:55:33;;;;;;;74.20;15.10;;;0.40;1.00;;;;;;5031433;28;20583;-74
2021/01/16 01:58:00;;;;;;;76.95;16.85;;;0.40;1.00;;;;;;5031512;28;20678;-74
2021/01/16 02:00:27;;;;;;;75.68;15.50;;;0.40;1.00;;;;;;5031372;28;20206;-74
2021/01/16 02:02:59;;;;;;;75.38;15.75;;;0.40;1.00;;;;;;5031198;28;20234;-74
2021/01/16 02:05:25;;;;;;;73.53;15.32;;;0.40;1.00;;;;;;5031250;28;20214;-74
2021/01/16 02:07:51;;;;;;;74.18;15.65;;;0.40;1.00;;;;;;5031482;28;20205;-74
2021/01/16 02:10:22;;;;;;;74.88;15.63;;;0.40;1.00;;;;;;5031499;28;20557;-74
2021/01/16 02:12:51;;;;;;;73.20;14.95;;;0.50;1.00;;;;;;5031487;28;20425;-74
2021/01/16 02:15:31;;;;;;;73.65;15.45;;;0.40;1.00;;;;;;5031373;28;20213;-74
2021/01/16 02:18:02;;;;;;;73.97;14.77;;;0.50;1.00;;;;;;5031646;28;20234;-74
2021/01/16 02:20:36;;;;;;;76.30;16.05;;;0.40;1.00;;;;;;5031386;28;20220;-74
2021/01/16 02:23:21;;;;;;;78.13;16.92;;;0.40;1.00;;;;;;5028312;28;20234;-74
2021/01/16 02:26:13;;;;;;;77.20;16.20;;;0.40;1.00;;;;;;5031267;28;20344;-74
2021/01/16 02:28:47;;;;;;;77.07;15.27;;;0.40;1.00;;;;;;5031333;28;20216;-74
2021/01/16 02:31:16;;;;;;;77.57;16.52;;;0.40;1.00;;;;;;5031073;28;20301;-74
2021/01/16 02:33:43;;;;;;;76.85;16.45;;;0.40;1.00;;;;;;5031538;28;20214;-74
2021/01/16 02:36:19;;;;;;;74.57;14.85;;;0.40;1.00;;;;;;5031002;28;20249;-74
2021/01/16 02:38:55;;;;;;;76.97;15.25;;;0.50;1.00;;;;;;5031769;28;20205;-74
2021/01/16 02:41:42;;;;;;;78.78;16.92;;;0.50;1.00;;;;;;5031103;28;20210;-74
2021/01/16 02:44:19;;;;;;;74.93;15.68;;;0.50;1.00;;;;;;5030920;28;20214;-74
2021/01/16 02:46:48;;;;;;;78.50;15.48;;;0.40;1.00;;;;;;5030560;28;20205;-75
2021/01/16 02:49:36;;;;;;;75.88;15.15;;;0.40;1.00;;;;;;5031031;28;20769;-74
2021/01/16 02:52:05;;;;;;;70.35;13.82;;;0.50;1.00;;;;;;5030650;28;20242;-74
2021/01/16 02:54:36;;;;;;;80.20;16.88;;;0.50;1.00;;;;;;5030703;28;20221;-74
2021/01/16 02:57:04;;;;;;;75.30;16.35;;;0.50;1.00;;;;;;5031715;28;20300;-74
2021/01/16 02:59:35;;;;;;;80.30;18.13;;;0.50;1.00;;;;;;5032728;28;20689;-75
2021/01/16 03:02:04;;;;;;;78.78;16.10;;;0.50;1.00;;;;;;5031012;28;20226;-74
2021/01/16 03:04:31;;;;;;;77.85;16.58;;;0.50;1.00;;;;;;5030503;28;20297;-74
2021/01/16 03:06:58;;;;;;;76.15;16.08;;;0.40;1.00;;;;;;5031162;28;20228;-74
2021/01/16 03:09:25;;;;;;;78.80;17.63;;;0.40;1.00;;;;;;5031193;28;20207;-74
2021/01/16 03:11:52;;;;;;;78.85;17.00;;;0.50;1.00;;;;;;5031074;28;20226;-74
2021/01/16 03:14:20;;;;;;;78.95;16.88;;;0.40;1.00;;;;;;5031733;28;20233;-74
2021/01/16 03:17:06;;;;;;;77.63;15.45;;;0.40;1.00;;;;;;5034572;28;20317;-74
2021/01/16 03:19:34;;;;;;;78.90;17.25;;;0.40;1.00;;;;;;5034576;28;20210;-74
2021/01/16 03:22:05;;;;;;;82.55;16.90;;;0.40;1.00;;;;;;5034426;28;20230;-74
2021/01/16 03:24:32;;;;;;;78.32;16.50;;;0.40;1.00;;;;;;5034010;28;20217;-74
2021/01/16 03:26:58;;;;;;;81.45;17.08;;;0.40;1.00;;;;;;5034435;28;20420;-74
2021/01/16 03:29:24;;;;;;;82.25;17.90;;;0.50;1.00;;;;;;5034174;28;20233;-74
2021/01/16 03:31:51;;;;;;;82.40;17.45;;;0.50;1.00;;;;;;5034132;28;20226;-74
2021/01/16 03:34:18;;;;;;;79.15;18.42;;;0.40;1.00;;;;;;5033971;28;20248;-74
2021/01/16 03:36:44;;;;;;;77.50;16.73;;;0.40;1.00;;;;;;5034363;28;20356;-74
2021/01/16 03:39:10;;;;;;;78.85;17.00;;;0.40;1.00;;;;;;5034323;28;20638;-74
2021/01/16 03:41:37;;;;;;;83.50;16.88;;;0.40;1.00;;;;;;5033983;28;20736;-74
2021/01/16 03:44:03;;;;;;;78.25;17.50;;;0.40;1.00;;;;;;5034553;28;20203;-74
2021/01/16 03:46:29;;;;;;;79.90;18.58;;;0.40;1.00;;;;;;5033527;28;20202;-74
2021/01/16 03:48:56;;;;;;;83.45;18.77;;;0.40;1.00;;;;;;5034317;28;20250;-74
2021/01/16 03:51:24;;;;;;;78.65;16.88;;;0.40;1.00;;;;;;5033756;28;20206;-74
2021/01/16 03:53:50;;;;;;;84.72;16.85;;;0.40;1.00;;;;;;5033911;28;20220;-74
2021/01/16 03:56:16;;;;;;;78.10;16.05;;;0.40;1.00;;;;;;5033370;28;20278;-74
2021/01/16 03:58:43;;;;;;;79.45;17.90;;;0.40;1.00;;;;;;5033719;28;20237;-74
2021/01/16 04:01:09;;;;;;;77.97;16.50;;;0.40;1.00;;;;;;5033641;28;20233;-74
2021/01/16 04:03:35;;;;;;;76.00;17.20;;;0.40;1.00;;;;;;5033607;28;20230;-74
2021/01/16 04:06:02;;;;;;;75.20;15.70;;;0.40;1.00;;;;;;5033384;28;20206;-74
2021/01/16 04:08:29;;;;;;;81.72;17.98;;;0.40;1.00;;;;;;5033502;28;20225;-74
2021/01/16 04:10:55;;;;;;;78.97;17.15;;;0.40;1.00;;;;;;5033600;28;20286;-74
2021/01/16 04:13:22;;;;;;;84.57;19.20;;;0.40;1.00;;;;;;5033082;28;20230;-74
2021/01/16 04:15:48;;;;;;;79.88;18.50;;;0.40;1.00;;;;;;5033401;28;20210;-74
2021/01/16 04:18:14;;;;;;;81.45;18.05;;;0.40;1.00;;;;;;5033641;28;20226;-74
2021/01/16 04:20:41;;;;;;;81.22;18.80;;;0.40;1.00;;;;;;5033563;28;20458;-74
2021/01/16 04:23:07;;;;;;;80.75;16.92;;;0.40;1.00;;;;;;5033054;28;20230;-74
2021/01/16 04:25:34;;;;;;;84.85;18.75;;;0.40;1.00;;;;;;5032726;28;20670;-74
2021/01/16 04:28:01;;;;;;;83.75;17.70;;;0.40;1.00;;;;;;5033152;28;20229;-74
2021/01/16 04:30:27;;;;;;;84.00;18.70;;;0.40;1.00;;;;;;5033328;28;20301;-74
2021/01/16 04:32:53;;;;;;;82.57;18.15;;;0.40;1.00;;;;;;5033177;28;20243;-74
2021/01/16 04:35:20;;;;;;;82.97;17.95;;;0.40;1.00;;;;;;5032565;28;20689;-74
2021/01/16 04:37:46;;;;;;;83.43;17.73;;;0.40;1.00;;;;;;5033077;28;20233;-74
2021/01/16 04:40:13;;;;;;;81.97;18.55;;;0.40;1.00;;;;;;5032953;28;20595;-74
2021/01/16 04:42:44;;;;;;;81.03;17.13;;;0.40;1.00;;;;;;5032861;28;20823;-74
2021/01/16 04:45:14;;;;;;;80.72;17.48;;;0.40;1.00;;;;;;5032427;28;20209;-75
2021/01/16 04:47:44;;;;;;;79.57;17.30;;;0.30;1.00;;;;;;5033029;28;20206;-74
2021/01/16 04:50:12;;;;;;;84.30;18.75;;;0.40;1.00;;;;;;5032774;28;20620;-74
2021/01/16 04:52:39;;;;;;;83.68;18.80;;;0.40;1.00;;;;;;5032607;28;20329;-74
2021/01/16 04:55:09;;;;;;;86.03;19.70;;;0.40;1.00;;;;;;5032035;28;20301;-74
2021/01/16 04:57:37;;;;;;;83.45;17.23;;;0.30;1.00;;;;;;5032994;28;20229;-74
2021/01/16 05:00:06;;;;;;;81.28;19.20;;;0.40;1.00;;;;;;5033877;28;20301;-74
2021/01/16 05:02:36;;;;;;;80.80;18.55;;;0.40;1.00;;;;;;5033122;28;20262;-74
2021/01/16 05:05:03;;;;;;;82.47;17.27;;;0.40;1.00;;;;;;5032269;28;20210;-74
2021/01/16 05:07:30;;;;;;;77.80;16.63;;;0.30;1.00;;;;;;5032156;28;20207;-74
2021/01/16 05:09:56;;;;;;;83.38;18.50;;;0.30;1.00;;;;;;5032749;28;20207;-75
2021/01/16 05:12:46;;;;;;;86.05;17.80;;;0.30;1.00;;;;;;5032422;28;20230;-74
2021/01/16 05:15:20;;;;;;;81.85;18.35;;;0.30;1.00;;;;;;5032016;28;20248;-73
2021/01/16 05:17:50;;;;;;;79.00;17.67;;;0.30;1.00;;;;;;5032054;28;20594;-74
2021/01/16 05:20:17;;;;;;;83.55;17.77;;;0.30;1.00;;;;;;5032542;28;20218;-74
2021/01/16 05:22:43;;;;;;;80.85;19.25;;;0.30;1.00;;;;;;5032216;28;20230;-74
2021/01/16 05:25:11;;;;;;;77.18;15.68;;;0.30;1.00;;;;;;5031976;28;20251;-74
2021/01/16 05:27:38;;;;;;;77.53;16.88;;;0.30;1.00;;;;;;5032019;28;20773;-74
2021/01/16 05:30:06;;;;;;;79.28;16.27;;;0.30;1.00;;;;;;5032159;28;20220;-74
2021/01/16 05:32:33;;;;;;;84.30;18.00;;;0.30;1.00;;;;;;5031717;28;20237;-74
2021/01/16 05:35:14;;;;;;;84.43;18.02;;;0.30;1.00;;;;;;5031629;28;20212;-74
2021/01/16 05:37:44;;;;;;;82.65;18.65;;;0.30;1.00;;;;;;5031346;28;20724;-74
2021/01/16 05:40:11;;;;;;;77.93;16.95;;;0.30;1.00;;;;;;5031803;28;20232;-73
2021/01/16 05:42:38;;;;;;;84.82;17.20;;;0.30;1.00;;;;;;5031837;28;20284;-73
2021/01/16 05:45:08;;;;;;;80.15;17.80;;;0.30;1.00;;;;;;5031252;28;20213;-73
2021/01/16 05:47:36;;;;;;;78.43;18.13;;;0.30;1.00;;;;;;5032085;28;20205;-73
2021/01/16 05:50:04;;;;;;;84.22;20.38;;;0.30;1.00;;;;;;5031763;28;20293;-73
2021/01/16 05:52:30;;;;;;;77.25;16.25;;;0.30;1.00;;;;;;5031649;28;20344;-73
2021/01/16 05:55:00;;;;;;;80.00;17.75;;;0.30;1.00;;;;;;5031050;28;20682;-74
2021/01/16 05:57:27;;;;;;;78.85;16.10;;;0.30;1.00;;;;;;5031599;28;20380;-73
2021/01/16 06:00:00;;;;;;;79.10;17.95;;;0.30;1.00;;;;;;5031781;28;20202;-73
2021/01/16 06:02:30;;;;;;;78.85;17.13;;;0.30;1.00;;;;;;5031635;28;20230;-73
2021/01/16 06:04:57;;;;;;;81.60;18.20;;;0.30;1.00;;;;;;5031261;28;20206;-73
2021/01/16 06:07:25;;;;;;;80.95;17.15;;;0.30;1.00;;;;;;5031519;28;20616;-73
2021/01/16 06:09:52;;;;;;;82.90;17.20;;;0.30;1.00;;;;;;5031885;28;20212;-73
2021/01/16 06:12:20;;;;;;;80.68;17.83;;;0.30;1.00;;;;;;5031511;28;20227;-74
2021/01/16 06:14:48;;;;;;;77.07;16.75;;;0.30;1.00;;;;;;5031147;28;20206;-74
2021/01/16 06:17:16;;;;;;;81.53;18.77;;;0.30;1.00;;;;;;5031415;28;20226;-74
2021/01/16 06:19:45;;;;;;;80.13;18.10;;;0.30;1.00;;;;;;5031511;28;20229;-74
2021/01/16 06:22:13;;;;;;;83.35;18.85;;;0.30;1.00;;;;;;5031258;28;20241;-74
2021/01/16 06:24:44;;;;;;;79.57;17.33;;;0.30;1.00;;;;;;5030913;28;20214;-74
2021/01/16 06:27:21;;;;;;;80.50;16.95;;;0.30;1.00;;;;;;5031470;28;20577;-74
2021/01/16 06:29:56;;;;;;;81.18;18.85;;;0.30;1.00;;;;;;5031612;28;20293;-74
2021/01/16 06:32:23;;;;;;;78.47;16.70;;;0.30;1.00;;;;;;5031227;28;20790;-74
2021/01/16 06:35:04;;;;;;;84.45;19.52;;;0.30;1.00;;;;;;5030532;28;20206;-74
2021/01/16 06:37:32;;;;;;;80.38;19.60;;;0.30;1.00;;;;;;5031497;28;20598;-74
2021/01/16 06:39:58;;;;;;;80.97;17.27;;;0.30;1.00;;;;;;5031248;28;20249;-74
2021/01/16 06:42:27;;;;;;;81.53;17.85;;;0.30;1.00;;;;;;5031324;28;20261;-74
2021/01/16 06:45:02;;;;;;;83.10;18.50;;;0.30;1.00;;;;;;5030722;28;20684;-74
2021/01/16 06:47:29;;;;;;;80.13;18.60;;;0.30;1.00;;;;;;5031420;28;20575;-74
2021/01/16 06:49:59;;;;;;;83.75;19.02;;;0.30;1.00;;;;;;5035179;28;20213;-74
2021/01/16 06:52:34;;;;;;;85.13;18.83;;;0.30;1.00;;;;;;5035245;28;20300;-74
2021/01/16 06:55:03;;;;;;;80.13;18.15;;;0.30;1.00;;;;;;5034329;28;20216;-73
2021/01/16 06:57:30;;;;;;;81.75;18.65;;;0.30;1.00;;;;;;5034815;28;20226;-72
2021/01/16 07:00:05;;;;;;;80.63;18.13;;;0.30;1.00;;;;;;5034797;28;20206;-73
2021/01/16 07:02:33;;;;;;;83.65;17.20;;;0.30;1.00;;;;;;5036971;28;20739;-72
2021/01/16 07:05:00;;;;;;;79.75;17.25;;;0.30;1.00;;;;;;5035018;28;20203;-73
2021/01/16 07:07:29;;;;;;;79.95;17.88;;;0.30;1.00;;;;;;5034904;28;20267;-72
2021/01/16 07:10:01;;;;;;;86.82;19.83;;;0.30;1.00;;;;;;5034792;28;20210;-73
2021/01/16 07:12:28;;;;;;;80.95;18.33;;;0.30;1.00;;;;;;5034411;28;20296;-72
2021/01/16 07:14:54;;;;;;;80.18;18.52;;;0.30;1.00;;;;;;5034535;28;20209;-73
2021/01/16 07:17:23;;;;;;;79.85;18.83;;;0.30;1.00;;;;;;5034264;28;20258;-73
2021/01/16 07:19:50;;;;;;;83.32;17.67;;;0.30;1.00;;;;;;5034550;28;20260;-73
2021/01/16 07:22:17;;;;;;;83.82;18.88;;;0.30;1.00;;;;;;5034294;28;20230;-72
2021/01/16 07:24:45;;;;;;;79.93;18.42;;;0.30;1.00;;;;;;5034109;28;20206;-73
2021/01/16 07:27:13;;;;;;;78.35;16.75;;;0.30;1.00;;;;;;5034161;28;20245;-73
2021/01/16 07:29:41;;;;;;;82.95;19.27;;;0.30;1.00;;;;;;5034555;28;20202;-73
2021/01/16 07:32:14;;;;;;;84.32;19.10;;;0.30;1.00;;;;;;5034052;28;20226;-73
2021/01/16 07:34:46;;;;;;;81.07;18.33;;;0.30;1.00;;;;;;5033446;28;20653;-73
2021/01/16 07:37:12;;;;;;;81.75;17.80;;;0.30;1.00;;;;;;5027990;28;20735;-73
2021/01/16 07:39:40;;;;;;;81.40;18.85;;;0.30;1.00;;;;;;5033954;28;20213;-73
2021/01/16 07:42:13;;;;;;;83.07;19.25;;;0.30;1.00;;;;;;5034314;28;20230;-73
2021/01/16 07:44:45;;;;;;;83.15;17.67;;;0.40;1.00;;;;;;5033818;28;20268;-73
2021/01/16 07:47:20;;;;;;;79.68;18.10;;;0.30;1.00;;;;;;5034149;28;20228;-73
2021/01/16 07:49:54;;;;;;;77.50;17.15;;;0.40;1.00;;;;;;5034002;28;20612;-73
2021/01/16 07:52:25;;;;;;;79.80;16.70;;;0.40;1.00;;;;;;5034509;28;20245;-72
2021/01/16 07:55:07;;;;;;;81.25;16.85;;;0.40;1.00;;;;;;5033629;28;20206;-72
2021/01/16 07:57:35;;;;;;;81.15;17.45;;;0.40;1.00;;;;;;5031722;28;20705;-72
2021/01/16 08:00:08;;;;;;;77.32;16.52;;;0.40;1.00;;;;;;5033099;28;20253;-72
2021/01/16 08:02:57;;;;;;;81.15;17.38;;;0.40;1.00;;;;;;5033504;28;20230;-73
2021/01/16 08:05:38;;;;;;;78.28;16.77;;;0.40;1.00;;;;;;5033536;28;20587;-73
2021/01/16 08:08:31;;;;;;;80.32;17.73;;;0.40;1.00;;;;;;5033721;28;20244;-73
2021/01/16 08:10:59;;;;;;;83.13;19.13;;;0.40;1.00;;;;;;5033338;28;20748;-73
2021/01/16 08:13:26;;;;;;;87.15;20.02;;;0.50;1.00;;;;;;5033457;28;20728;-73
2021/01/16 08:15:53;;;;;;;84.32;19.67;;;0.50;1.00;;;;;;5032838;28;20238;-73
2021/01/16 08:18:22;;;;;;;83.05;19.13;;;0.50;1.00;;;;;;5033435;28;20304;-73
2021/01/16 08:20:50;;;;;;;79.93;18.13;;;0.50;1.00;;;;;;5033739;28;20217;-73
2021/01/16 08:23:24;;;;;;;83.80;20.02;;;0.50;1.00;;;;;;5032768;28;20232;-73
2021/01/16 08:25:51;;;;;;;79.68;17.30;;;0.50;1.00;;;;;;5031977;28;20212;-73
2021/01/16 08:28:26;;;;;;;84.82;19.13;;;0.50;1.00;;;;;;5033500;28;20198;-73
2021/01/16 08:30:53;;;;;;;80.53;18.50;;;0.50;1.00;;;;;;5033115;28;20212;-73
2021/01/16 08:33:33;;;;;;;81.05;18.65;;;0.50;1.00;;;;;;5032968;28;20227;-73
2021/01/16 08:36:16;;;;;;;82.22;20.27;;;0.50;1.00;;;;;;5032382;28;20206;-73
2021/01/16 08:38:43;;;;;;;83.10;19.55;;;0.50;1.00;;;;;;5033150;28;20295;-73
2021/01/16 08:41:10;;;;;;;79.53;19.83;;;0.60;1.00;;;;;;5033210;28;20600;-73
2021/01/16 08:43:39;;;;;;;90.53;20.67;;;0.60;1.00;;;;;;5032945;28;20617;-74
2021/01/16 08:46:13;;;;;;;79.47;19.23;;;0.60;1.00;;;;;;5032501;28;20622;-73
2021/01/16 08:48:41;;;;;;;82.90;17.90;;;0.60;1.00;;;;;;5033089;28;20287;-73
2021/01/16 08:51:30;;;;;;;77.72;16.55;;;0.60;1.00;;;;;;5032955;28;20209;-73
2021/01/16 08:54:09;;;;;;;77.38;16.40;;;0.60;1.00;;;;;;5032808;28;20221;-73
2021/01/16 08:56:36;;;;;;;83.10;20.33;;;0.60;1.00;;;;;;5032289;28;20205;-73
2021/01/16 08:59:20;;;;;;;80.78;19.13;;;0.60;1.00;;;;;;5032568;28;20728;-73
2021/01/16 09:01:50;;;;;;;83.80;18.05;;;0.60;1.00;;;;;;5032752;28;20717;-73
2021/01/16 09:04:21;;;;;;;78.38;17.50;;;0.60;1.00;;;;;;5033838;28;20297;-73
2021/01/16 09:06:48;;;;;;;83.03;19.88;;;0.60;1.00;;;;;;5033049;28;20670;-73
2021/01/16 09:09:24;;;;;;;81.43;19.20;;;0.60;1.00;;;;;;5032222;28;20288;-73
2021/01/16 09:12:05;;;;;;;81.13;18.42;;;0.60;1.00;;;;;;5031614;28;20292;-73
2021/01/16 09:14:32;;;;;;;78.82;17.85;;;0.60;1.00;;;;;;5032082;28;20233;-73
2021/01/16 09:17:14;;;;;;;78.43;18.63;;;0.60;1.00;;;;;;5032203;28;20722;-73
2021/01/16 09:19:42;;;;;;;85.00;18.67;;;0.60;1.00;;;;;;5032103;28;20253;-73
2021/01/16 09:22:18;;;;;;;81.47;18.67;;;0.60;1.00;;;;;;5032477;28;20780;-73
2021/01/16 09:24:45;;;;;;;79.57;19.23;;;0.60;1.00;;;;;;5031948;28;20205;-73
2021/01/16 09:27:22;;;;;;;84.45;19.45;;;0.60;1.00;;;;;;5032297;28;20225;-73
2021/01/16 09:29:49;;;;;;;86.88;20.35;;;0.60;1.00;;;;;;5032196;28;20626;-73
2021/01/16 09:32:35;;;;;;;87.15;22.48;;;0.70;1.00;;;;;;5032178;28;20603;-73
2021/01/16 09:35:04;;;;;;;80.85;19.77;;;0.70;1.00;;;;;;5031933;28;20214;-73
2021/01/16 09:37:35;;;;;;;83.05;18.90;;;0.70;1.00;;;;;;5031996;28;20272;-73
2021/01/16 09:40:09;;;;;;;80.55;18.23;;;0.70;1.00;;;;;;5032132;28;20202;-74
2021/01/16 09:42:47;;;;;;;86.18;20.45;;;0.60;1.00;;;;;;5031674;28;20226;-73
2021/01/16 09:45:16;;;;;;;82.53;19.23;;;0.60;1.00;;;;;;5031774;28;20217;-73
2021/01/16 09:47:55;;;;;;;84.22;20.77;;;0.60;1.00;;;;;;5031971;28;20230;-74
2021/01/16 09:50:26;;;;;;;84.57;20.92;;;0.60;1.00;;;;;;5031992;28;20233;-73
2021/01/16 09:52:54;;;;;;;85.00;20.65;;;0.60;1.00;;;;;;5031415;28;20230;-73
2021/01/16 09:55:35;;;;;;;82.68;19.23;;;0.60;1.00;;;;;;5031915;28;20206;-72
2021/01/16 09:58:03;;;;;;;81.13;20.10;;;0.60;1.00;;;;;;5031546;28;20233;-73
2021/01/16 10:00:33;;;;;;;86.13;20.38;;;0.60;1.00;;;;;;5031734;28;20685;-73
2021/01/16 10:03:04;;;;;;;83.70;19.98;;;0.60;1.00;;;;;;5031339;28;20236;-73
2021/01/16 10:05:33;;;;;;;86.95;20.90;;;0.60;1.00;;;;;;5031055;28;20215;-73
2021/01/16 10:08:00;;;;;;;89.90;23.85;;;0.60;1.00;;;;;;5031529;28;20202;-73
2021/01/16 10:10:27;;;;;;;84.28;21.50;;;0.60;1.00;;;;;;5031882;28;20292;-72
2021/01/16 10:12:58;;;;;;;80.13;18.73;;;0.60;1.00;;;;;;5031309;28;20222;-73
2021/01/16 10:15:27;;;;;;;82.82;19.73;;;0.60;1.00;;;;;;5031205;28;20238;-73
2021/01/16 10:17:56;;;;;;;81.40;19.00;;;0.60;1.00;;;;;;5031054;28;20222;-73
2021/01/16 10:20:32;;;;;;;82.63;20.15;;;0.50;1.00;;;;;;5031323;28;20298;-72
2021/01/16 10:23:00;;;;;;;86.60;19.80;;;0.50;1.00;;;;;;5034014;28;20233;-73
2021/01/16 10:25:39;;;;;;;78.80;18.40;;;0.50;1.00;;;;;;5037888;28;20292;-72
2021/01/16 10:28:06;;;;;;;84.47;19.42;;;0.50;1.00;;;;;;5037987;28;20700;-72
2021/01/16 10:30:33;;;;;;;80.13;17.95;;;0.40;1.00;;;;;;5038259;28;20641;-73
2021/01/16 10:33:15;;;;;;;80.10;18.85;;;0.40;1.00;;;;;;5037903;28;20786;-72
2021/01/16 10:35:44;;;;;;;88.15;21.00;;;0.40;1.00;;;;;;5037696;28;20263;-73
2021/01/16 10:38:12;;;;;;;84.50;19.27;;;0.40;1.00;;;;;;5037642;28;20224;-73
2021/01/16 10:40:50;;;;;;;81.80;18.52;;;0.50;1.00;;;;;;5037889;28;20206;-74
2021/01/16 10:43:17;;;;;;;81.70;18.65;;;0.50;1.00;;;;;;5037925;28;20238;-73
2021/01/16 10:46:10;;;;;;;76.57;18.13;;;0.50;1.00;;;;;;5037435;28;20210;-74
2021/01/16 10:48:38;;;;;;;76.95;16.83;;;0.50;1.00;;;;;;5037783;28;20202;-72
2021/01/16 10:51:10;;;;;;;74.60;14.88;;;0.50;1.00;;;;;;5037578;28;20206;-71
2021/01/16 10:53:38;;;;;;;74.88;16.23;;;0.50;1.00;;;;;;5037673;28;20244;-72
2021/01/16 10:56:15;;;;;;;76.68;17.35;;;0.60;1.00;;;;;;5037097;28;20257;-71
2021/01/16 10:58:44;;;;;;;897.33;99.13;;;0.60;1.00;;;;;;5036975;28;20724;-68
2021/01/16 11:01:10;;;;;;;79.70;18.48;;;0.80;1.00;;;;;;5037597;28;20728;-70
2021/01/16 11:03:38;;;;;;;83.70;17.98;;;1.20;1.00;;;;;;5037904;28;20306;-71
2021/01/16 11:06:06;;;;;;;76.38;15.63;;;1.40;1.00;;;;;;5039970;28;20556;-71
2021/01/16 11:08:33;;;;;;;78.85;18.10;;;1.40;1.00;;;;;;5038942;28;20267;-71
2021/01/16 11:11:00;;;;;;;79.07;16.95;;;1.50;1.00;;;;;;5037879;28;20206;-72
2021/01/16 11:13:28;;;;;;;72.75;15.73;;;1.50;1.00;;;;;;5037703;28;20322;-72
2021/01/16 11:15:57;;;;;;;74.10;15.63;;;1.50;1.00;;;;;;5037209;28;20688;-71
2021/01/16 11:18:29;;;;;;;78.07;16.10;;;1.50;1.00;;;;;;5037223;28;20713;-72
2021/01/16 11:21:07;;;;;;;75.53;15.93;;;1.50;1.00;;;;;;5037857;28;20214;-72
2021/01/16 11:24:01;;;;;;;74.35;15.48;;;1.50;1.00;;;;;;5037363;28;20335;-72
2021/01/16 11:26:44;;;;;;;77.50;15.82;;;1.60;1.00;;;;;;5037210;28;20307;-72
2021/01/16 11:29:16;;;;;;;74.53;15.90;;;1.60;1.00;;;;;;5037618;28;20298;-72
2021/01/16 11:31:47;;;;;;;73.80;15.65;;;1.50;1.00;;;;;;5037289;28;20233;-72
2021/01/16 11:34:24;;;;;;;77.72;16.23;;;1.50;1.00;;;;;;5035535;28;20206;-71
2021/01/16 11:37:01;;;;;;;78.47;17.55;;;1.60;1.00;;;;;;5034356;28;20212;-72
2021/01/16 11:39:48;;;;;;;72.97;15.20;;;1.60;1.00;;;;;;5034148;28;20685;-72
2021/01/16 11:42:15;;;;;;;72.97;15.43;;;1.70;1.00;;;;;;5034218;28;20317;-71
2021/01/16 11:44:58;;;;;;;82.38;16.60;;;1.70;1.00;;;;;;5034030;28;20206;-71
2021/01/16 11:47:26;;;;;;;78.35;17.33;;;1.70;1.00;;;;;;5034071;28;20210;-72
2021/01/16 11:49:53;;;;;;;77.53;16.17;;;1.80;1.00;;;;;;5034098;28;20202;-71
2021/01/16 11:52:21;;;;;;;74.30;15.45;;;1.80;1.00;;;;;;5033927;28;20234;-72
2021/01/16 11:54:48;;;;;;;77.90;15.88;;;1.80;1.00;;;;;;5033703;28;20203;-72
2021/01/16 11:57:18;;;;;;;78.35;17.40;;;1.80;1.00;;;;;;5033798;28;20230;-72
2021/01/16 11:59:46;;;;;;;78.38;17.23;;;1.80;1.00;;;;;;5033746;28;20301;-72
2021/01/16 12:02:14;;;;;;;76.97;18.20;;;1.90;1.00;;;;;;5033495;28;20312;-72
2021/01/16 12:04:44;;;;;;;78.25;18.13;;;2.00;1.00;;;;;;5033611;28;20585;-72
2021/01/16 12:07:14;;;;;;;79.28;17.45;;;2.00;1.00;;;;;;5033700;28;20210;-72
2021/01/16 12:09:44;;;;;;;76.25;17.55;;;2.00;1.00;;;;;;5033737;28;20681;-72
2021/01/16 12:12:11;;;;;;;80.45;17.02;;;2.00;1.00;;;;;;5033471;28;20297;-72
2021/01/16 12:14:39;;;;;;;83.47;18.38;;;2.10;1.00;;;;;;5033252;28;20257;-71
2021/01/16 12:17:07;;;;;;;80.55;18.60;;;2.10;1.00;;;;;;5033817;28;20218;-70
2021/01/16 12:19:34;;;;;;;78.55;18.45;;;2.10;1.00;;;;;;5033651;28;20234;-72
2021/01/16 12:22:04;;;;;;;77.25;17.73;;;2.10;1.00;;;;;;5033856;28;20249;-71
2021/01/16 12:24:31;;;;;;;81.45;20.02;;;2.10;1.00;;;;;;5033160;28;20210;-71
2021/01/16 12:27:00;;;;;;;74.60;16.00;;;2.10;1.00;;;;;;5031741;28;20209;-71
2021/01/16 12:29:37;;;;;;;79.15;17.98;;;2.20;1.00;;;;;;5033625;28;20245;-71
2021/01/16 12:32:05;;;;;;;80.85;19.52;;;2.10;1.00;;;;;;5033456;28;20225;-72
2021/01/16 12:34:33;;;;;;;77.97;17.27;;;2.10;1.00;;;;;;5033123;28;20285;-73
2021/01/16 12:36:59;;;;;;;77.20;18.67;;;2.10;1.00;;;;;;5033287;28;20673;-73
2021/01/16 12:39:27;;;;;;;77.72;17.48;;;2.00;1.00;;;;;;5032891;28;20296;-73
2021/01/16 12:41:59;;;;;;;77.25;16.48;;;1.90;1.00;;;;;;5033656;28;20234;-73
2021/01/16 12:44:25;;;;;;;78.68;19.02;;;1.90;1.00;;;;;;5033215;28;20203;-73
2021/01/16 12:46:52;;;;;;;83.20;18.38;;;1.90;1.00;;;;;;5033243;28;20214;-73
2021/01/16 12:49:20;;;;;;;77.00;17.30;;;1.90;1.00;;;;;;5032841;28;20705;-73
2021/01/16 12:51:47;;;;;;;78.97;17.40;;;1.90;1.00;;;;;;5032978;28;20226;-73
2021/01/16 12:54:15;;;;;;;77.95;17.42;;;1.90;1.00;;;;;;5032543;28;20264;-74
2021/01/16 12:56:42;;;;;;;79.25;18.17;;;1.90;1.00;;;;;;5032940;28;20207;-73
2021/01/16 12:59:15;;;;;;;80.03;18.17;;;1.80;1.00;;;;;;5032941;28;20637;-73
2021/01/16 13:01:44;;;;;;;82.72;19.63;;;1.90;1.00;;;;;;5033284;28;20230;-73